Airfield :







YOU CAN JOIN US ON...

 
LOGIN :

Register | Disclaimer

   EN    FR    IT 

 









Legend :    VFR   Marginal VFR   IFR   Intensive IFR   Very Intensive IFR
Visi :
Ceiling :
>= 8 km
>= 3000ft
5 to 8 km
1000 to 3000 ft
1500m to 5 km
500 to 1000 ft
800 to 1500m
200 to 500 ft
< 800m
< 200 ft
Symbols :   Thunderstorms  Fog  Heavy snow  Heavy precipitations  Wind > 20 kt






- Airport Elevation : 39 ft
- IATA code : YNA


CYNA - Natashquan

CURRENT METAR :
  • 290500Z AUTO 02005KT 9SM CLR M07/M12 A3016 RMK SLP215

EXPIRED METARs :
  • 290400Z AUTO 31003KT 9SM CLR M10/M13 A3014 RMK SLP208
  • 290300Z AUTO 35004KT 9SM CLR M05/M10 A3011 RMK SLP199

TAF TAF CYNA
Valid from the 29 at 02:00 until the 29 at 14:00 UTC


290138Z 2902/2914 35006KT P6SM SKC
BECMG 2907/2909 02008KT RMK FCST BASED ON AUTO OBS. NXT FCST BY 290800Z



MET'MAP, your aeronautical weather chart ! - Copyright ORBIFLY December 2007 - Disclaimer

ORBIFLY MET'MAP TEAM :

Programming & Development : Alexandra Zaïnal
Concept & original design : Baudouin d'Aumeries
Assistance for programming : Marc-Olivier Méhu
Technical & hardware support : Manuel Goepfert

Contact : metmap@orbifly.com




SOURCES & CREDITS :

   NOAA